sensor_id;sensor_type;location;lat;lon;timestamp;pressure;altitude;pressure_sealevel;temperature;humidity
8160;BME280;27404;52.398;9.646;2023-06-22T00:01:49;101182.66;;;18.40;100.00
8160;BME280;27404;52.398;9.646;2023-06-22T00:04:14;101184.34;;;18.52;100.00
8160;BME280;27404;52.398;9.646;2023-06-22T00:06:40;101178.78;;;18.46;100.00
8160;BME280;27404;52.398;9.646;2023-06-22T00:09:05;101190.94;;;18.30;100.00
8160;BME280;27404;52.398;9.646;2023-06-22T00:11:32;101198.13;;;18.20;100.00
8160;BME280;27404;52.398;9.646;2023-06-22T00:13:59;101198.41;;;18.14;100.00
8160;BME280;27404;52.398;9.646;2023-06-22T00:16:24;101206.66;;;18.03;100.00
8160;BME280;27404;52.398;9.646;2023-06-22T00:18:50;101205.22;;;17.96;100.00
8160;BME280;27404;52.398;9.646;2023-06-22T00:21:15;101216.81;;;17.87;100.00
8160;BME280;27404;52.398;9.646;2023-06-22T00:23:41;101215.69;;;17.78;100.00
8160;BME280;27404;52.398;9.646;2023-06-22T00:26:07;101218.97;;;17.70;100.00
8160;BME280;27404;52.398;9.646;2023-06-22T00:28:34;101215.31;;;17.64;100.00
8160;BME280;27404;52.398;9.646;2023-06-22T00:30:59;101220.00;;;17.58;100.00
8160;BME280;27404;52.398;9.646;2023-06-22T00:33:26;101217.78;;;17.55;100.00
8160;BME280;27404;52.398;9.646;2023-06-22T00:35:52;101218.03;;;17.49;100.00
8160;BME280;27404;52.398;9.646;2023-06-22T00:38:18;101229.88;;;17.44;100.00
8160;BME280;27404;52.398;9.646;2023-06-22T00:40:44;101224.06;;;17.40;100.00
8160;BME280;27404;52.398;9.646;2023-06-22T00:43:10;101226.78;;;17.35;100.00
8160;BME280;27404;52.398;9.646;2023-06-22T00:45:35;101209.13;;;17.36;100.00
8160;BME280;27404;52.398;9.646;2023-06-22T00:48:01;101209.41;;;17.40;100.00
8160;BME280;27404;52.398;9.646;2023-06-22T00:50:30;101198.16;;;17.52;100.00
8160;BME280;27404;52.398;9.646;2023-06-22T00:53:00;101198.16;;;17.62;100.00
8160;BME280;27404;52.398;9.646;2023-06-22T00:55:26;101195.38;;;17.52;100.00
8160;BME280;27404;52.398;9.646;2023-06-22T00:57:52;101182.88;;;17.44;100.00
8160;BME280;27404;52.398;9.646;2023-06-22T01:00:22;101185.09;;;17.42;100.00
8160;BME280;27404;52.398;9.646;2023-06-22T01:02:50;101182.63;;;17.45;100.00
8160;BME280;27404;52.398;9.646;2023-06-22T01:05:18;101180.44;;;17.48;100.00
8160;BME280;27404;52.398;9.646;2023-06-22T01:08:08;101183.47;;;17.51;100.00
8160;BME280;27404;52.398;9.646;2023-06-22T01:13:36;101170.44;;;17.41;100.00
8160;BME280;27404;52.398;9.646;2023-06-22T01:16:35;101171.28;;;17.42;100.00
8160;BME280;27404;52.398;9.646;2023-06-22T01:19:02;101167.94;;;17.40;100.00
8160;BME280;27404;52.398;9.646;2023-06-22T01:21:31;101170.41;;;17.31;100.00
8160;BME280;27404;52.398;9.646;2023-06-22T01:24:30;101158.53;;;17.36;100.00
8160;BME280;27404;52.398;9.646;2023-06-22T01:27:24;101156.03;;;17.34;100.00
8160;BME280;27404;52.398;9.646;2023-06-22T01:29:56;101147.19;;;17.32;100.00
8160;BME280;27404;52.398;9.646;2023-06-22T01:32:33;101155.13;;;17.23;100.00
8160;BME280;27404;52.398;9.646;2023-06-22T01:35:01;101156.22;;;17.17;100.00
8160;BME280;27404;52.398;9.646;2023-06-22T01:37:29;101162.78;;;17.06;100.00
8160;BME280;27404;52.398;9.646;2023-06-22T01:39:58;101170.94;;;16.90;100.00
8160;BME280;27404;52.398;9.646;2023-06-22T01:42:24;101163.19;;;16.87;100.00
8160;BME280;27404;52.398;9.646;2023-06-22T01:44:52;101159.59;;;16.86;100.00
8160;BME280;27404;52.398;9.646;2023-06-22T01:47:19;101166.72;;;16.77;100.00
8160;BME280;27404;52.398;9.646;2023-06-22T01:49:46;101159.53;;;16.76;100.00
8160;BME280;27404;52.398;9.646;2023-06-22T01:52:11;101160.66;;;16.80;100.00
8160;BME280;27404;52.398;9.646;2023-06-22T01:54:39;101149.31;;;16.77;100.00
8160;BME280;27404;52.398;9.646;2023-06-22T01:57:05;101162.25;;;16.71;100.00
8160;BME280;27404;52.398;9.646;2023-06-22T02:00:00;101167.75;;;16.71;100.00
8160;BME280;27404;52.398;9.646;2023-06-22T02:02:31;101167.16;;;16.64;100.00
8160;BME280;27404;52.398;9.646;2023-06-22T02:05:11;101159.66;;;16.59;100.00
8160;BME280;27404;52.398;9.646;2023-06-22T02:07:58;101158.22;;;16.51;100.00
8160;BME280;27404;52.398;9.646;2023-06-22T02:10:27;101165.91;;;16.49;100.00
8160;BME280;27404;52.398;9.646;2023-06-22T02:12:54;101177.00;;;16.54;100.00
8160;BME280;27404;52.398;9.646;2023-06-22T02:15:20;101184.47;;;16.54;100.00
8160;BME280;27404;52.398;9.646;2023-06-22T02:17:47;101179.19;;;16.52;100.00
8160;BME280;27404;52.398;9.646;2023-06-22T02:20:14;101178.91;;;16.49;100.00
8160;BME280;27404;52.398;9.646;2023-06-22T02:22:40;101179.16;;;16.47;100.00
8160;BME280;27404;52.398;9.646;2023-06-22T02:25:06;101181.66;;;16.49;100.00
8160;BME280;27404;52.398;9.646;2023-06-22T02:27:32;101187.44;;;16.47;100.00
8160;BME280;27404;52.398;9.646;2023-06-22T02:29:57;101186.03;;;16.45;100.00
8160;BME280;27404;52.398;9.646;2023-06-22T02:32:23;101185.47;;;16.42;100.00
8160;BME280;27404;52.398;9.646;2023-06-22T02:34:48;101190.13;;;16.42;100.00
8160;BME280;27404;52.398;9.646;2023-06-22T02:37:14;101189.03;;;16.43;100.00
8160;BME280;27404;52.398;9.646;2023-06-22T02:39:40;101186.00;;;16.39;100.00
8160;BME280;27404;52.398;9.646;2023-06-22T02:42:05;101186.84;;;16.45;100.00
8160;BME280;27404;52.398;9.646;2023-06-22T02:44:31;101196.28;;;16.49;100.00
8160;BME280;27404;52.398;9.646;2023-06-22T02:46:56;101196.03;;;16.51;100.00
8160;BME280;27404;52.398;9.646;2023-06-22T02:49:22;101198.22;;;16.49;100.00
8160;BME280;27404;52.398;9.646;2023-06-22T02:51:48;101207.66;;;16.53;100.00
8160;BME280;27404;52.398;9.646;2023-06-22T02:54:14;101214.44;;;16.45;100.00
8160;BME280;27404;52.398;9.646;2023-06-22T02:56:39;101225.44;;;16.40;100.00
8160;BME280;27404;52.398;9.646;2023-06-22T02:59:06;101214.41;;;16.40;100.00
8160;BME280;27404;52.398;9.646;2023-06-22T03:01:31;101216.91;;;16.41;100.00
8160;BME280;27404;52.398;9.646;2023-06-22T03:04:05;101219.91;;;16.40;100.00
8160;BME280;27404;52.398;9.646;2023-06-22T03:06:30;101217.09;;;16.35;100.00
8160;BME280;27404;52.398;9.646;2023-06-22T03:09:01;101212.16;;;16.37;100.00
8160;BME280;27404;52.398;9.646;2023-06-22T03:11:27;101219.28;;;16.33;100.00
8160;BME280;27404;52.398;9.646;2023-06-22T03:13:52;101218.59;;;16.42;100.00
8160;BME280;27404;52.398;9.646;2023-06-22T03:16:18;101217.16;;;16.40;100.00
8160;BME280;27404;52.398;9.646;2023-06-22T03:18:44;101216.13;;;16.46;100.00
8160;BME280;27404;52.398;9.646;2023-06-22T03:21:10;101221.44;;;16.53;100.00
8160;BME280;27404;52.398;9.646;2023-06-22T03:23:35;101220.06;;;16.55;100.00
8160;BME280;27404;52.398;9.646;2023-06-22T03:26:02;101223.69;;;16.61;100.00
8160;BME280;27404;52.398;9.646;2023-06-22T03:28:27;101214.94;;;16.69;100.00
8160;BME280;27404;52.398;9.646;2023-06-22T03:30:53;101216.41;;;16.77;100.00
8160;BME280;27404;52.398;9.646;2023-06-22T03:33:19;101219.47;;;16.81;100.00
8160;BME280;27404;52.398;9.646;2023-06-22T03:35:44;101215.66;;;16.87;100.00
8160;BME280;27404;52.398;9.646;2023-06-22T03:38:09;101214.91;;;16.97;100.00
8160;BME280;27404;52.398;9.646;2023-06-22T03:40:35;101213.59;;;17.05;100.00
8160;BME280;27404;52.398;9.646;2023-06-22T03:43:00;101220.00;;;17.10;100.00
8160;BME280;27404;52.398;9.646;2023-06-22T03:45:26;101211.50;;;17.17;100.00
8160;BME280;27404;52.398;9.646;2023-06-22T03:47:51;101205.72;;;17.24;100.00
8160;BME280;27404;52.398;9.646;2023-06-22T03:50:17;101210.22;;;17.35;100.00
8160;BME280;27404;52.398;9.646;2023-06-22T03:52:45;101200.03;;;17.46;100.00
8160;BME280;27404;52.398;9.646;2023-06-22T03:55:10;101201.47;;;17.54;100.00
8160;BME280;27404;52.398;9.646;2023-06-22T03:57:36;101196.00;;;17.69;100.00
8160;BME280;27404;52.398;9.646;2023-06-22T04:00:01;101192.22;;;17.91;100.00
8160;BME280;27404;52.398;9.646;2023-06-22T04:02:30;101198.63;;;18.07;100.00
8160;BME280;27404;52.398;9.646;2023-06-22T04:04:56;101200.91;;;18.26;100.00
8160;BME280;27404;52.398;9.646;2023-06-22T04:07:21;101204.53;;;18.52;100.00
8160;BME280;27404;52.398;9.646;2023-06-22T04:09:46;101211.19;;;18.82;100.00
8160;BME280;27404;52.398;9.646;2023-06-22T04:12:12;101215.63;;;19.09;100.00
8160;BME280;27404;52.398;9.646;2023-06-22T04:14:37;101213.38;;;19.32;100.00
8160;BME280;27404;52.398;9.646;2023-06-22T04:17:03;101214.94;;;19.64;100.00
8160;BME280;27404;52.398;9.646;2023-06-22T04:19:29;101210.94;;;19.96;100.00
8160;BME280;27404;52.398;9.646;2023-06-22T04:21:55;101208.00;;;20.22;100.00
8160;BME280;27404;52.398;9.646;2023-06-22T04:24:20;101199.50;;;20.88;100.00
8160;BME280;27404;52.398;9.646;2023-06-22T04:26:45;101195.28;;;20.90;100.00
8160;BME280;27404;52.398;9.646;2023-06-22T04:29:12;101210.16;;;20.70;100.00
8160;BME280;27404;52.398;9.646;2023-06-22T04:31:37;101195.16;;;20.36;100.00
8160;BME280;27404;52.398;9.646;2023-06-22T04:34:04;101192.50;;;20.55;100.00
8160;BME280;27404;52.398;9.646;2023-06-22T04:36:38;101188.31;;;21.71;100.00
8160;BME280;27404;52.398;9.646;2023-06-22T04:39:10;101196.38;;;23.01;100.00
8160;BME280;27404;52.398;9.646;2023-06-22T04:41:40;101207.72;;;23.66;100.00
8160;BME280;27404;52.398;9.646;2023-06-22T04:44:16;101204.06;;;24.07;100.00
8160;BME280;27404;52.398;9.646;2023-06-22T04:49:20;101198.50;;;25.62;100.00
8160;BME280;27404;52.398;9.646;2023-06-22T04:51:46;101206.84;;;26.55;95.79
8160;BME280;27404;52.398;9.646;2023-06-22T04:54:12;101202.84;;;27.00;89.87
8160;BME280;27404;52.398;9.646;2023-06-22T04:56:37;101203.56;;;26.35;95.61
8160;BME280;27404;52.398;9.646;2023-06-22T04:59:06;101206.78;;;26.99;92.13
8160;BME280;27404;52.398;9.646;2023-06-22T05:01:32;101206.22;;;27.71;83.93
8160;BME280;27404;52.398;9.646;2023-06-22T05:03:58;101207.47;;;27.43;84.08
8160;BME280;27404;52.398;9.646;2023-06-22T05:06:26;101203.47;;;27.83;84.41
8160;BME280;27404;52.398;9.646;2023-06-22T05:08:55;101201.13;;;28.15;81.21
8160;BME280;27404;52.398;9.646;2023-06-22T05:11:25;101198.66;;;27.62;84.35
8160;BME280;27404;52.398;9.646;2023-06-22T05:13:50;101204.22;;;28.22;82.12
8160;BME280;27404;52.398;9.646;2023-06-22T05:16:16;101197.63;;;28.73;75.29
8160;BME280;27404;52.398;9.646;2023-06-22T05:18:42;101193.06;;;29.02;71.96
8160;BME280;27404;52.398;9.646;2023-06-22T05:21:08;101194.47;;;30.08;70.05
8160;BME280;27404;52.398;9.646;2023-06-22T05:23:34;101188.47;;;30.79;66.37
8160;BME280;27404;52.398;9.646;2023-06-22T05:25:59;101190.97;;;30.84;64.97
8160;BME280;27404;52.398;9.646;2023-06-22T05:28:25;101191.16;;;31.36;62.21
8160;BME280;27404;52.398;9.646;2023-06-22T05:30:50;101192.41;;;31.22;61.97
8160;BME280;27404;52.398;9.646;2023-06-22T05:33:16;101197.16;;;31.18;61.54
8160;BME280;27404;52.398;9.646;2023-06-22T05:35:41;101185.78;;;29.88;62.83
8160;BME280;27404;52.398;9.646;2023-06-22T05:38:07;101187.09;;;29.29;68.45
8160;BME280;27404;52.398;9.646;2023-06-22T05:40:33;101195.00;;;28.77;70.94
8160;BME280;27404;52.398;9.646;2023-06-22T05:42:58;101188.59;;;27.61;78.09
8160;BME280;27404;52.398;9.646;2023-06-22T05:45:25;101182.09;;;27.91;76.98
8160;BME280;27404;52.398;9.646;2023-06-22T05:47:51;101188.19;;;27.72;77.26
8160;BME280;27404;52.398;9.646;2023-06-22T05:50:16;101192.66;;;27.94;76.26
8160;BME280;27404;52.398;9.646;2023-06-22T05:52:42;101194.03;;;28.09;77.20
8160;BME280;27404;52.398;9.646;2023-06-22T05:55:08;101188.22;;;28.35;73.27
8160;BME280;27404;52.398;9.646;2023-06-22T05:57:33;101189.78;;;27.82;75.14
8160;BME280;27404;52.398;9.646;2023-06-22T05:59:59;101177.94;;;27.76;76.15
8160;BME280;27404;52.398;9.646;2023-06-22T06:02:24;101184.41;;;28.74;74.71
8160;BME280;27404;52.398;9.646;2023-06-22T06:04:50;101183.72;;;30.54;65.95
8160;BME280;27404;52.398;9.646;2023-06-22T06:07:18;101192.31;;;32.61;57.46
8160;BME280;27404;52.398;9.646;2023-06-22T06:09:43;101194.50;;;33.38;54.73
8160;BME280;27404;52.398;9.646;2023-06-22T06:12:09;101202.34;;;33.99;52.04
8160;BME280;27404;52.398;9.646;2023-06-22T06:14:34;101194.66;;;35.05;49.30
8160;BME280;27404;52.398;9.646;2023-06-22T06:16:59;101193.66;;;35.32;46.09
8160;BME280;27404;52.398;9.646;2023-06-22T06:19:25;101199.31;;;35.28;45.57
8160;BME280;27404;52.398;9.646;2023-06-22T06:21:50;101196.44;;;35.24;44.63
8160;BME280;27404;52.398;9.646;2023-06-22T06:24:16;101194.06;;;34.89;45.96
8160;BME280;27404;52.398;9.646;2023-06-22T06:26:41;101182.47;;;36.27;44.12
8160;BME280;27404;52.398;9.646;2023-06-22T06:29:07;101179.28;;;36.36;41.52
8160;BME280;27404;52.398;9.646;2023-06-22T06:31:32;101174.53;;;35.25;42.06
8160;BME280;27404;52.398;9.646;2023-06-22T06:33:58;101176.94;;;34.81;44.45
8160;BME280;27404;52.398;9.646;2023-06-22T06:36:24;101173.75;;;33.84;46.38
8160;BME280;27404;52.398;9.646;2023-06-22T06:38:49;101164.78;;;32.19;48.51
8160;BME280;27404;52.398;9.646;2023-06-22T06:41:15;101165.94;;;33.00;46.80
8160;BME280;27404;52.398;9.646;2023-06-22T06:43:41;101162.97;;;33.16;46.36
8160;BME280;27404;52.398;9.646;2023-06-22T06:46:08;101160.00;;;35.37;43.26
8160;BME280;27404;52.398;9.646;2023-06-22T06:48:34;101165.16;;;35.80;41.16
8160;BME280;27404;52.398;9.646;2023-06-22T06:51:00;101165.97;;;37.53;38.64
8160;BME280;27404;52.398;9.646;2023-06-22T06:53:25;101170.06;;;39.15;35.92
8160;BME280;27404;52.398;9.646;2023-06-22T06:55:51;101166.13;;;38.27;34.89
8160;BME280;27404;52.398;9.646;2023-06-22T06:58:16;101159.47;;;37.45;35.02
8160;BME280;27404;52.398;9.646;2023-06-22T07:00:42;101162.31;;;37.30;36.43
8160;BME280;27404;52.398;9.646;2023-06-22T07:03:08;101164.34;;;37.19;36.07
8160;BME280;27404;52.398;9.646;2023-06-22T07:05:34;101174.13;;;37.32;35.12
8160;BME280;27404;52.398;9.646;2023-06-22T07:08:00;101176.97;;;37.54;34.22
8160;BME280;27404;52.398;9.646;2023-06-22T07:10:26;101174.50;;;37.67;34.71
8160;BME280;27404;52.398;9.646;2023-06-22T07:12:51;101176.94;;;36.71;36.04
8160;BME280;27404;52.398;9.646;2023-06-22T07:15:17;101175.94;;;33.94;40.86
8160;BME280;27404;52.398;9.646;2023-06-22T07:17:42;101172.44;;;34.05;41.32
8160;BME280;27404;52.398;9.646;2023-06-22T07:20:09;101171.09;;;33.18;43.27
8160;BME280;27404;52.398;9.646;2023-06-22T07:22:40;101169.66;;;33.04;44.50
8160;BME280;27404;52.398;9.646;2023-06-22T07:25:06;101158.31;;;32.38;46.64
8160;BME280;27404;52.398;9.646;2023-06-22T07:28:01;101156.19;;;32.15;47.25
8160;BME280;27404;52.398;9.646;2023-06-22T07:30:28;101151.75;;;31.95;47.57
8160;BME280;27404;52.398;9.646;2023-06-22T07:32:54;101159.34;;;32.49;47.33
8160;BME280;27404;52.398;9.646;2023-06-22T07:35:19;101151.25;;;33.41;46.60
8160;BME280;27404;52.398;9.646;2023-06-22T07:37:45;101148.78;;;33.93;45.38
8160;BME280;27404;52.398;9.646;2023-06-22T07:40:10;101143.22;;;33.47;45.77
8160;BME280;27404;52.398;9.646;2023-06-22T07:42:36;101143.41;;;33.58;46.46
8160;BME280;27404;52.398;9.646;2023-06-22T07:45:07;101136.97;;;33.61;47.21
8160;BME280;27404;52.398;9.646;2023-06-22T07:47:35;101143.81;;;33.06;45.87
8160;BME280;27404;52.398;9.646;2023-06-22T07:50:02;101146.34;;;32.45;48.95
8160;BME280;27404;52.398;9.646;2023-06-22T07:52:28;101144.34;;;31.54;49.17
8160;BME280;27404;52.398;9.646;2023-06-22T07:54:53;101139.28;;;30.80;54.85
8160;BME280;27404;52.398;9.646;2023-06-22T07:57:19;101141.16;;;30.31;55.37
8160;BME280;27404;52.398;9.646;2023-06-22T07:59:45;101137.88;;;29.88;56.01
8160;BME280;27404;52.398;9.646;2023-06-22T08:02:11;101125.06;;;29.37;60.04
8160;BME280;27404;52.398;9.646;2023-06-22T08:04:37;101132.94;;;29.85;59.53
8160;BME280;27404;52.398;9.646;2023-06-22T08:07:03;101132.63;;;30.72;57.62
8160;BME280;27404;52.398;9.646;2023-06-22T08:09:30;101123.06;;;31.09;55.30
8160;BME280;27404;52.398;9.646;2023-06-22T08:11:56;101133.22;;;31.78;52.84
8160;BME280;27404;52.398;9.646;2023-06-22T08:14:23;101141.69;;;32.17;51.75
8160;BME280;27404;52.398;9.646;2023-06-22T08:16:49;101147.28;;;32.53;50.62
8160;BME280;27404;52.398;9.646;2023-06-22T08:19:14;101147.13;;;32.45;51.01
8160;BME280;27404;52.398;9.646;2023-06-22T08:21:40;101148.03;;;32.73;50.35
8160;BME280;27404;52.398;9.646;2023-06-22T08:24:05;101133.50;;;31.56;52.02
8160;BME280;27404;52.398;9.646;2023-06-22T08:26:32;101150.16;;;31.97;52.31
8160;BME280;27404;52.398;9.646;2023-06-22T08:29:01;101141.81;;;32.63;51.00
8160;BME280;27404;52.398;9.646;2023-06-22T08:31:27;101149.53;;;32.67;49.50
8160;BME280;27404;52.398;9.646;2023-06-22T08:33:52;101145.78;;;32.19;50.45
8160;BME280;27404;52.398;9.646;2023-06-22T08:36:18;101151.81;;;32.81;49.92
8160;BME280;27404;52.398;9.646;2023-06-22T08:38:43;101164.25;;;32.53;48.65
8160;BME280;27404;52.398;9.646;2023-06-22T08:41:10;101163.47;;;32.75;48.59
8160;BME280;27404;52.398;9.646;2023-06-22T08:43:36;101154.34;;;32.86;48.24
8160;BME280;27404;52.398;9.646;2023-06-22T08:46:01;101151.44;;;32.00;50.31
8160;BME280;27404;52.398;9.646;2023-06-22T08:48:29;101140.53;;;31.14;51.92
8160;BME280;27404;52.398;9.646;2023-06-22T08:50:54;101131.25;;;30.37;54.79
8160;BME280;27404;52.398;9.646;2023-06-22T08:53:20;101134.16;;;29.72;58.25
8160;BME280;27404;52.398;9.646;2023-06-22T08:55:46;101131.84;;;29.61;58.67
8160;BME280;27404;52.398;9.646;2023-06-22T08:58:11;101130.19;;;29.60;59.13
8160;BME280;27404;52.398;9.646;2023-06-22T09:00:37;101131.44;;;29.88;60.29
8160;BME280;27404;52.398;9.646;2023-06-22T09:03:02;101144.50;;;29.80;59.54
8160;BME280;27404;52.398;9.646;2023-06-22T09:05:29;101136.75;;;29.64;60.10
8160;BME280;27404;52.398;9.646;2023-06-22T09:07:56;101143.91;;;29.49;61.13
8160;BME280;27404;52.398;9.646;2023-06-22T09:10:22;101129.25;;;29.06;63.82
8160;BME280;27404;52.398;9.646;2023-06-22T09:12:47;101123.97;;;28.25;67.67
8160;BME280;27404;52.398;9.646;2023-06-22T09:15:13;101117.69;;;28.07;68.53
8160;BME280;27404;52.398;9.646;2023-06-22T09:17:40;101107.81;;;28.22;70.94
8160;BME280;27404;52.398;9.646;2023-06-22T09:20:06;101105.84;;;28.69;70.33
8160;BME280;27404;52.398;9.646;2023-06-22T09:22:33;101103.63;;;28.74;67.09
8160;BME280;27404;52.398;9.646;2023-06-22T09:24:58;101094.28;;;29.20;69.33
8160;BME280;27404;52.398;9.646;2023-06-22T09:27:25;101092.41;;;29.61;65.69
8160;BME280;27404;52.398;9.646;2023-06-22T09:29:50;101090.19;;;29.83;64.17
8160;BME280;27404;52.398;9.646;2023-06-22T09:32:16;101090.09;;;30.20;63.46
8160;BME280;27404;52.398;9.646;2023-06-22T09:34:41;101084.66;;;30.27;62.43
8160;BME280;27404;52.398;9.646;2023-06-22T09:37:07;101075.94;;;30.33;61.35
8160;BME280;27404;52.398;9.646;2023-06-22T09:39:32;101080.97;;;29.70;64.98
8160;BME280;27404;52.398;9.646;2023-06-22T09:42:01;101077.66;;;29.39;65.20
8160;BME280;27404;52.398;9.646;2023-06-22T09:44:26;101083.84;;;28.95;65.98
8160;BME280;27404;52.398;9.646;2023-06-22T09:46:51;101074.97;;;28.81;68.83
8160;BME280;27404;52.398;9.646;2023-06-22T09:49:17;101079.94;;;28.75;69.69
8160;BME280;27404;52.398;9.646;2023-06-22T09:51:42;101088.31;;;29.21;68.49
8160;BME280;27404;52.398;9.646;2023-06-22T09:54:08;101086.31;;;29.34;68.52
8160;BME280;27404;52.398;9.646;2023-06-22T09:56:33;101087.72;;;29.16;69.29
8160;BME280;27404;52.398;9.646;2023-06-22T09:58:59;101081.84;;;29.21;68.44
8160;BME280;27404;52.398;9.646;2023-06-22T10:01:24;101087.06;;;28.60;70.95
8160;BME280;27404;52.398;9.646;2023-06-22T10:03:52;101084.84;;;28.66;70.41
8160;BME280;27404;52.398;9.646;2023-06-22T10:06:19;101079.53;;;28.40;73.11
8160;BME280;27404;52.398;9.646;2023-06-22T10:08:45;101078.47;;;29.28;69.72
8160;BME280;27404;52.398;9.646;2023-06-22T10:11:10;101077.41;;;28.95;71.77
8160;BME280;27404;52.398;9.646;2023-06-22T10:13:36;101070.47;;;29.30;69.55
8160;BME280;27404;52.398;9.646;2023-06-22T10:16:01;101075.59;;;29.65;67.99
8160;BME280;27404;52.398;9.646;2023-06-22T10:18:27;101077.78;;;29.43;69.63
8160;BME280;27404;52.398;9.646;2023-06-22T10:20:52;101077.88;;;28.85;72.25
8160;BME280;27404;52.398;9.646;2023-06-22T10:23:19;101068.84;;;28.79;72.89
8160;BME280;27404;52.398;9.646;2023-06-22T10:25:45;101062.22;;;28.50;75.49
8160;BME280;27404;52.398;9.646;2023-06-22T10:28:10;101051.00;;;28.62;75.62
8160;BME280;27404;52.398;9.646;2023-06-22T10:30:38;101041.72;;;28.62;76.10
8160;BME280;27404;52.398;9.646;2023-06-22T10:33:03;101045.06;;;29.01;75.47
8160;BME280;27404;52.398;9.646;2023-06-22T10:35:29;101047.25;;;28.83;75.38
8160;BME280;27404;52.398;9.646;2023-06-22T10:37:54;101040.59;;;28.29;79.53
8160;BME280;27404;52.398;9.646;2023-06-22T10:40:21;101049.59;;;27.89;83.08
8160;BME280;27404;52.398;9.646;2023-06-22T10:42:46;101052.28;;;28.19;81.49
8160;BME280;27404;52.398;9.646;2023-06-22T10:45:12;101048.81;;;28.34;80.84
8160;BME280;27404;52.398;9.646;2023-06-22T10:47:38;101043.72;;;28.74;79.29
8160;BME280;27404;52.398;9.646;2023-06-22T10:50:05;101042.09;;;29.10;76.43
8160;BME280;27404;52.398;9.646;2023-06-22T10:52:30;101042.56;;;29.12;76.22
8160;BME280;27404;52.398;9.646;2023-06-22T10:54:56;101047.72;;;29.22;77.54
8160;BME280;27404;52.398;9.646;2023-06-22T10:57:22;101032.97;;;29.13;76.07
8160;BME280;27404;52.398;9.646;2023-06-22T10:59:47;101039.06;;;29.15;77.59
8160;BME280;27404;52.398;9.646;2023-06-22T11:02:13;101030.34;;;29.45;76.72
8160;BME280;27404;52.398;9.646;2023-06-22T11:04:38;101032.63;;;29.68;73.74
8160;BME280;27404;52.398;9.646;2023-06-22T11:07:04;101030.25;;;30.27;72.50
8160;BME280;27404;52.398;9.646;2023-06-22T11:09:29;101026.88;;;30.05;73.45
8160;BME280;27404;52.398;9.646;2023-06-22T11:11:55;101023.91;;;29.45;74.80
8160;BME280;27404;52.398;9.646;2023-06-22T11:14:21;101015.69;;;29.39;72.14
8160;BME280;27404;52.398;9.646;2023-06-22T11:16:47;101019.97;;;29.08;74.74
8160;BME280;27404;52.398;9.646;2023-06-22T11:19:13;101023.34;;;29.39;73.51
8160;BME280;27404;52.398;9.646;2023-06-22T11:21:39;101020.59;;;29.30;74.81
8160;BME280;27404;52.398;9.646;2023-06-22T11:24:05;101017.41;;;29.57;74.46
8160;BME280;27404;52.398;9.646;2023-06-22T11:26:30;101013.72;;;28.90;76.32
8160;BME280;27404;52.398;9.646;2023-06-22T11:28:57;101006.06;;;29.16;76.25
8160;BME280;27404;52.398;9.646;2023-06-22T11:31:23;101002.66;;;29.35;75.67
8160;BME280;27404;52.398;9.646;2023-06-22T11:33:49;100988.94;;;29.74;75.17
8160;BME280;27404;52.398;9.646;2023-06-22T11:36:14;101008.09;;;29.97;73.02
8160;BME280;27404;52.398;9.646;2023-06-22T11:38:40;100997.84;;;30.05;72.06
8160;BME280;27404;52.398;9.646;2023-06-22T11:41:07;100996.78;;;29.81;73.88
8160;BME280;27404;52.398;9.646;2023-06-22T11:43:33;100994.84;;;29.57;74.86
8160;BME280;27404;52.398;9.646;2023-06-22T11:45:59;100986.41;;;29.57;75.51
8160;BME280;27404;52.398;9.646;2023-06-22T11:48:25;100988.72;;;29.67;75.45
8160;BME280;27404;52.398;9.646;2023-06-22T11:50:50;100981.22;;;29.87;74.31
8160;BME280;27404;52.398;9.646;2023-06-22T11:53:16;100970.69;;;30.44;72.77
8160;BME280;27404;52.398;9.646;2023-06-22T11:55:43;100967.94;;;30.32;71.21
8160;BME280;27404;52.398;9.646;2023-06-22T11:58:08;100955.66;;;30.08;71.48
8160;BME280;27404;52.398;9.646;2023-06-22T12:00:34;100952.28;;;30.51;68.32
8160;BME280;27404;52.398;9.646;2023-06-22T12:03:00;100949.38;;;29.99;71.03
8160;BME280;27404;52.398;9.646;2023-06-22T12:05:25;100941.84;;;29.05;73.40
8160;BME280;27404;52.398;9.646;2023-06-22T12:07:53;100933.25;;;29.55;74.34
8160;BME280;27404;52.398;9.646;2023-06-22T12:10:20;100924.13;;;29.74;71.93
8160;BME280;27404;52.398;9.646;2023-06-22T12:12:45;100926.34;;;29.52;73.65
8160;BME280;27404;52.398;9.646;2023-06-22T12:15:11;100925.31;;;29.45;74.17
8160;BME280;27404;52.398;9.646;2023-06-22T12:17:36;100921.44;;;29.08;76.20
8160;BME280;27404;52.398;9.646;2023-06-22T12:20:02;100922.91;;;28.77;79.41
8160;BME280;27404;52.398;9.646;2023-06-22T12:22:31;100923.34;;;28.55;77.69
8160;BME280;27404;52.398;9.646;2023-06-22T12:24:57;100918.19;;;28.19;79.79
8160;BME280;27404;52.398;9.646;2023-06-22T12:27:22;100921.59;;;28.25;81.53
8160;BME280;27404;52.398;9.646;2023-06-22T12:29:48;100913.53;;;28.48;82.84
8160;BME280;27404;52.398;9.646;2023-06-22T12:32:14;100910.84;;;28.77;81.37
8160;BME280;27404;52.398;9.646;2023-06-22T12:34:41;100908.94;;;29.22;76.59
8160;BME280;27404;52.398;9.646;2023-06-22T12:37:07;100897.06;;;29.41;75.41
8160;BME280;27404;52.398;9.646;2023-06-22T12:39:32;100904.91;;;29.35;78.08
8160;BME280;27404;52.398;9.646;2023-06-22T12:41:58;100902.75;;;29.73;75.99
8160;BME280;27404;52.398;9.646;2023-06-22T12:44:23;100899.91;;;30.18;73.20
8160;BME280;27404;52.398;9.646;2023-06-22T12:46:49;100897.09;;;30.18;71.02
8160;BME280;27404;52.398;9.646;2023-06-22T12:49:15;100891.38;;;29.98;73.93
8160;BME280;27404;52.398;9.646;2023-06-22T12:51:41;100881.88;;;29.90;71.06
8160;BME280;27404;52.398;9.646;2023-06-22T12:54:10;100875.63;;;29.81;73.74
8160;BME280;27404;52.398;9.646;2023-06-22T12:56:37;100876.75;;;29.35;75.26
8160;BME280;27404;52.398;9.646;2023-06-22T12:59:03;100864.31;;;29.65;75.20
8160;BME280;27404;52.398;9.646;2023-06-22T13:01:29;100874.09;;;29.99;72.75